Time,TemperatureF,DewpointF,PressureIn,WindDirection,WindDirectionDegrees,WindSpeedMPH,WindSpeedGustMPH,Humidity,HourlyPrecipIn,Conditions,Clouds,dailyrainin,SolarRadiationWatts/m^2,SoftwareType,DateUTC
2013-02-26 00:11:00,39.0,31.0,-100.00,West,274,3.0,9.0,74,-99.99,,,0.02,0.000000,,2013-02-26 08:11:00,
2013-02-26 01:11:00,39.0,29.0,-100.00,WNW,298,3.0,8.0,67,-99.99,,,0.02,0.000000,,2013-02-26 09:11:00,
2013-02-26 02:11:00,39.0,31.0,-100.00,West,265,5.0,15.0,74,-99.99,,,0.02,0.000000,,2013-02-26 10:11:00,
2013-02-26 03:11:00,39.0,32.0,-100.00,WNW,295,7.0,19.0,77,-99.99,,,0.01,0.000000,,2013-02-26 11:11:00,
2013-02-26 04:11:00,39.0,33.0,-100.00,WNW,296,6.0,17.0,79,-99.99,,,0.01,0.000000,,2013-02-26 12:11:00,
2013-02-26 05:11:00,38.0,34.0,-100.00,WNW,299,6.0,17.0,83,-99.99,,,0.01,0.000000,,2013-02-26 13:11:00,
2013-02-26 06:11:00,39.0,34.0,-100.00,WNW,288,5.0,12.0,83,-99.99,,,0.01,0.000000,,2013-02-26 14:11:00,
2013-02-26 07:11:00,39.0,33.0,-100.00,WNW,301,7.0,16.0,80,-99.99,,,0.01,0.000000,,2013-02-26 15:11:00,
2013-02-26 08:11:00,39.0,34.0,-100.00,WNW,299,5.0,10.0,81,-99.99,,,0.00,21.969999,,2013-02-26 16:11:00,
2013-02-26 09:11:00,40.0,34.0,-100.00,East,89,2.0,8.0,81,-99.99,,,0.00,224.300003,,2013-02-26 17:11:00,
2013-02-26 10:12:00,42.0,35.0,-100.00,NW,310,4.0,12.0,76,-99.99,,,-99.99,382.250000,,2013-02-26 18:12:00,
2013-02-26 12:11:00,45.0,34.0,-100.00,NNW,328,2.0,7.0,63,-99.99,,,0.00,520.669983,,2013-02-26 20:11:00,
2013-02-26 14:11:00,47.0,33.0,-100.00,WNW,300,3.0,8.0,58,-99.99,,,0.00,350.049988,,2013-02-26 22:11:00,
2013-02-26 15:11:00,46.0,34.0,-100.00,WNW,302,4.0,11.0,63,-99.99,,,0.00,222.210007,,2013-02-26 23:11:00,
2013-02-26 16:11:00,46.0,34.0,-100.00,WNW,300,4.0,8.0,62,-99.99,,,0.00,208.960007,,2013-02-27 00:11:00,
2013-02-26 17:11:00,46.0,34.0,-100.00,WNW,287,4.0,8.0,63,-99.99,,,0.00,175.490005,,2013-02-27 01:11:00,
2013-02-26 18:13:00,45.0,34.0,-100.00,WSW,257,1.0,3.0,62,-99.99,,,0.00,52.180000,,2013-02-27 02:13:00,
2013-02-26 19:11:00,44.0,35.0,-100.00,WNW,299,0.0,2.0,70,-99.99,,,0.00,0.230000,,2013-02-27 03:11:00,
2013-02-26 20:11:00,42.0,35.0,-100.00,SSE,167,2.0,4.0,75,-99.99,,,0.00,0.000000,,2013-02-27 04:11:00,
2013-02-26 21:11:00,41.0,35.0,-100.00,NNW,334,0.0,1.0,79,-99.99,,,0.00,0.000000,,2013-02-27 05:11:00,
2013-02-26 22:11:00,41.0,36.0,-100.00,WNW,294,1.0,2.0,82,-99.99,,,0.00,0.000000,,2013-02-27 06:11:00,
2013-02-26 23:12:00,39.0,35.0,-100.00,SW,219,2.0,3.0,84,-99.99,,,-99.99,0.000000,,2013-02-27 07:12:00,